sensor_id;sensor_type;location;lat;lon;timestamp;pressure;altitude;pressure_sealevel;temperature;humidity
71361;BME280;59166;48.908;1.870;2022-11-20T00:04:48;100215.63;;;5.93;99.51
71361;BME280;59166;48.908;1.870;2022-11-20T00:09:50;100208.97;;;5.84;100.00
71361;BME280;59166;48.908;1.870;2022-11-20T00:14:51;100213.91;;;5.87;99.75
71361;BME280;59166;48.908;1.870;2022-11-20T00:19:52;100214.31;;;5.84;99.44
71361;BME280;59166;48.908;1.870;2022-11-20T00:24:54;100217.38;;;5.76;99.82
71361;BME280;59166;48.908;1.870;2022-11-20T00:29:55;100225.63;;;5.74;98.93
71361;BME280;59166;48.908;1.870;2022-11-20T00:34:56;100222.94;;;5.63;99.96
71361;BME280;59166;48.908;1.870;2022-11-20T00:39:59;100222.53;;;5.48;100.00
71361;BME280;59166;48.908;1.870;2022-11-20T00:45:00;100221.13;;;5.45;99.99
71361;BME280;59166;48.908;1.870;2022-11-20T00:50:01;100227.16;;;5.41;100.00
71361;BME280;59166;48.908;1.870;2022-11-20T00:55:04;100230.78;;;5.35;99.30
71361;BME280;59166;48.908;1.870;2022-11-20T01:00:06;100222.72;;;5.35;99.73
71361;BME280;59166;48.908;1.870;2022-11-20T01:05:07;100226.34;;;5.29;98.00
71361;BME280;59166;48.908;1.870;2022-11-20T01:10:10;100221.16;;;5.15;98.44
71361;BME280;59166;48.908;1.870;2022-11-20T01:15:11;100224.16;;;5.07;98.65
71361;BME280;59166;48.908;1.870;2022-11-20T01:20:12;100218.44;;;5.04;99.74
71361;BME280;59166;48.908;1.870;2022-11-20T01:25:15;100217.22;;;5.00;98.02
71361;BME280;59166;48.908;1.870;2022-11-20T01:30:15;100215.56;;;4.87;99.16
71361;BME280;59166;48.908;1.870;2022-11-20T01:35:17;100210.06;;;4.82;99.84
71361;BME280;59166;48.908;1.870;2022-11-20T01:40:19;100211.84;;;4.88;99.73
71361;BME280;59166;48.908;1.870;2022-11-20T01:50:58;100203.00;;;4.88;100.00
71361;BME280;59166;48.908;1.870;2022-11-20T01:56:03;100205.44;;;4.89;100.00
71361;BME280;59166;48.908;1.870;2022-11-20T02:01:06;100204.19;;;4.92;100.00
71361;BME280;59166;48.908;1.870;2022-11-20T02:06:11;100195.44;;;4.96;100.00
71361;BME280;59166;48.908;1.870;2022-11-20T02:11:15;100196.06;;;4.98;100.00
71361;BME280;59166;48.908;1.870;2022-11-20T02:16:20;100191.91;;;5.02;99.96
71361;BME280;59166;48.908;1.870;2022-11-20T02:21:45;100187.00;;;4.99;100.00
71361;BME280;59166;48.908;1.870;2022-11-20T02:27:08;100178.16;;;4.99;99.30
71361;BME280;59166;48.908;1.870;2022-11-20T02:32:18;100178.97;;;4.99;100.00
71361;BME280;59166;48.908;1.870;2022-11-20T02:37:20;100167.44;;;4.99;100.00
71361;BME280;59166;48.908;1.870;2022-11-20T02:42:23;100163.56;;;4.95;99.62
71361;BME280;59166;48.908;1.870;2022-11-20T02:47:24;100144.03;;;4.94;100.00
71361;BME280;59166;48.908;1.870;2022-11-20T02:52:25;100133.31;;;4.94;100.00
71361;BME280;59166;48.908;1.870;2022-11-20T02:57:28;100138.13;;;5.04;99.38
71361;BME280;59166;48.908;1.870;2022-11-20T03:02:30;100124.72;;;4.92;100.00
71361;BME280;59166;48.908;1.870;2022-11-20T03:07:31;100112.38;;;4.91;100.00
71361;BME280;59166;48.908;1.870;2022-11-20T03:12:34;100109.91;;;4.90;100.00
71361;BME280;59166;48.908;1.870;2022-11-20T03:17:35;100109.22;;;4.94;100.00
71361;BME280;59166;48.908;1.870;2022-11-20T03:22:36;100102.13;;;4.88;100.00
71361;BME280;59166;48.908;1.870;2022-11-20T03:27:38;100105.25;;;4.85;100.00
71361;BME280;59166;48.908;1.870;2022-11-20T03:32:39;100096.16;;;4.86;100.00
71361;BME280;59166;48.908;1.870;2022-11-20T03:37:40;100096.75;;;4.88;100.00
71361;BME280;59166;48.908;1.870;2022-11-20T03:42:43;100090.13;;;4.91;100.00
71361;BME280;59166;48.908;1.870;2022-11-20T03:47:44;100102.84;;;4.95;100.00
71361;BME280;59166;48.908;1.870;2022-11-20T03:52:45;100084.22;;;5.00;100.00
71361;BME280;59166;48.908;1.870;2022-11-20T03:57:48;100082.59;;;4.99;100.00
71361;BME280;59166;48.908;1.870;2022-11-20T04:02:50;100071.06;;;4.99;100.00
71361;BME280;59166;48.908;1.870;2022-11-20T04:07:51;100068.16;;;5.00;100.00
71361;BME280;59166;48.908;1.870;2022-11-20T04:12:54;100077.56;;;5.03;100.00
71361;BME280;59166;48.908;1.870;2022-11-20T04:17:55;100074.13;;;5.02;100.00
71361;BME280;59166;48.908;1.870;2022-11-20T04:22:55;100069.78;;;5.01;100.00
71361;BME280;59166;48.908;1.870;2022-11-20T04:27:58;100059.66;;;4.92;100.00
71361;BME280;59166;48.908;1.870;2022-11-20T04:32:59;100054.97;;;4.87;100.00
71361;BME280;59166;48.908;1.870;2022-11-20T04:38:00;100060.91;;;4.89;100.00
71361;BME280;59166;48.908;1.870;2022-11-20T04:43:02;100058.69;;;4.86;100.00
71361;BME280;59166;48.908;1.870;2022-11-20T04:48:08;100051.72;;;4.85;100.00
71361;BME280;59166;48.908;1.870;2022-11-20T04:53:09;100050.66;;;4.86;100.00
71361;BME280;59166;48.908;1.870;2022-11-20T04:58:12;100045.78;;;4.83;100.00
71361;BME280;59166;48.908;1.870;2022-11-20T05:03:13;100033.69;;;4.81;100.00
71361;BME280;59166;48.908;1.870;2022-11-20T05:08:14;100021.69;;;4.83;100.00
71361;BME280;59166;48.908;1.870;2022-11-20T05:13:16;100022.75;;;4.82;100.00
71361;BME280;59166;48.908;1.870;2022-11-20T05:18:17;100022.88;;;4.87;100.00
71361;BME280;59166;48.908;1.870;2022-11-20T05:23:18;100023.91;;;4.86;100.00
71361;BME280;59166;48.908;1.870;2022-11-20T05:28:21;100024.38;;;4.83;100.00
71361;BME280;59166;48.908;1.870;2022-11-20T05:33:22;100019.47;;;4.80;100.00
71361;BME280;59166;48.908;1.870;2022-11-20T05:38:23;100027.75;;;4.79;100.00
71361;BME280;59166;48.908;1.870;2022-11-20T05:43:26;100022.16;;;4.80;100.00
71361;BME280;59166;48.908;1.870;2022-11-20T05:48:27;100014.94;;;4.81;100.00
71361;BME280;59166;48.908;1.870;2022-11-20T05:53:28;100016.34;;;4.83;100.00
71361;BME280;59166;48.908;1.870;2022-11-20T05:58:31;100005.41;;;4.85;100.00
71361;BME280;59166;48.908;1.870;2022-11-20T06:03:32;100006.44;;;4.84;100.00
71361;BME280;59166;48.908;1.870;2022-11-20T06:08:33;100002.03;;;4.89;100.00
71361;BME280;59166;48.908;1.870;2022-11-20T06:13:36;99993.78;;;4.91;100.00
71361;BME280;59166;48.908;1.870;2022-11-20T06:18:37;99985.66;;;4.97;100.00
71361;BME280;59166;48.908;1.870;2022-11-20T06:23:38;99989.25;;;5.03;100.00
71361;BME280;59166;48.908;1.870;2022-11-20T06:28:41;99994.16;;;5.06;100.00
71361;BME280;59166;48.908;1.870;2022-11-20T06:33:43;99988.00;;;5.05;100.00
71361;BME280;59166;48.908;1.870;2022-11-20T06:38:44;99985.78;;;5.02;100.00
71361;BME280;59166;48.908;1.870;2022-11-20T06:43:47;99994.38;;;5.04;100.00
71361;BME280;59166;48.908;1.870;2022-11-20T06:48:48;100010.22;;;5.06;100.00
71361;BME280;59166;48.908;1.870;2022-11-20T06:53:49;100010.31;;;5.11;100.00
71361;BME280;59166;48.908;1.870;2022-11-20T06:58:52;100003.81;;;5.18;100.00
71361;BME280;59166;48.908;1.870;2022-11-20T07:03:53;100010.09;;;5.24;100.00
71361;BME280;59166;48.908;1.870;2022-11-20T07:08:54;100003.22;;;5.28;100.00
71361;BME280;59166;48.908;1.870;2022-11-20T07:13:56;99999.75;;;5.28;100.00
71361;BME280;59166;48.908;1.870;2022-11-20T07:18:57;100001.47;;;5.34;100.00
71361;BME280;59166;48.908;1.870;2022-11-20T07:23:58;100005.91;;;5.40;100.00
71361;BME280;59166;48.908;1.870;2022-11-20T07:29:01;100005.66;;;5.41;100.00
71361;BME280;59166;48.908;1.870;2022-11-20T07:34:02;99996.13;;;5.45;100.00
71361;BME280;59166;48.908;1.870;2022-11-20T07:39:03;100003.00;;;5.53;100.00
71361;BME280;59166;48.908;1.870;2022-11-20T07:44:06;99993.31;;;5.63;100.00
71361;BME280;59166;48.908;1.870;2022-11-20T07:49:07;99988.88;;;5.69;100.00
71361;BME280;59166;48.908;1.870;2022-11-20T07:54:11;99984.41;;;5.74;100.00
71361;BME280;59166;48.908;1.870;2022-11-20T07:59:17;99981.03;;;5.79;99.70
71361;BME280;59166;48.908;1.870;2022-11-20T08:04:33;99987.56;;;5.83;100.00
71361;BME280;59166;48.908;1.870;2022-11-20T08:09:43;99982.88;;;5.90;100.00
71361;BME280;59166;48.908;1.870;2022-11-20T08:14:46;99969.69;;;6.00;100.00
71361;BME280;59166;48.908;1.870;2022-11-20T08:19:47;99967.19;;;6.10;100.00
71361;BME280;59166;48.908;1.870;2022-11-20T08:24:48;99963.72;;;6.26;100.00
71361;BME280;59166;48.908;1.870;2022-11-20T08:29:52;99949.34;;;6.33;100.00
71361;BME280;59166;48.908;1.870;2022-11-20T08:34:53;99934.91;;;6.34;100.00
71361;BME280;59166;48.908;1.870;2022-11-20T08:39:55;99934.06;;;6.33;100.00
71361;BME280;59166;48.908;1.870;2022-11-20T08:44:57;99930.59;;;6.33;100.00
71361;BME280;59166;48.908;1.870;2022-11-20T08:49:58;99919.13;;;6.37;100.00
71361;BME280;59166;48.908;1.870;2022-11-20T08:54:59;99922.16;;;6.41;100.00
71361;BME280;59166;48.908;1.870;2022-11-20T09:00:03;99917.00;;;6.39;100.00
71361;BME280;59166;48.908;1.870;2022-11-20T09:05:05;99908.00;;;6.45;100.00
71361;BME280;59166;48.908;1.870;2022-11-20T09:10:07;99913.16;;;6.47;100.00
71361;BME280;59166;48.908;1.870;2022-11-20T09:15:10;99907.28;;;6.50;100.00
71361;BME280;59166;48.908;1.870;2022-11-20T09:20:10;99909.00;;;6.56;100.00
71361;BME280;59166;48.908;1.870;2022-11-20T09:25:11;99904.69;;;6.55;100.00
71361;BME280;59166;48.908;1.870;2022-11-20T09:30:14;99884.63;;;6.57;100.00
71361;BME280;59166;48.908;1.870;2022-11-20T09:35:15;99878.19;;;6.58;100.00
71361;BME280;59166;48.908;1.870;2022-11-20T09:40:20;99874.44;;;6.59;100.00
71361;BME280;59166;48.908;1.870;2022-11-20T09:45:35;99879.00;;;6.59;100.00
71361;BME280;59166;48.908;1.870;2022-11-20T09:50:42;99890.16;;;6.67;100.00
71361;BME280;59166;48.908;1.870;2022-11-20T09:55:46;99879.06;;;6.81;100.00
71361;BME280;59166;48.908;1.870;2022-11-20T10:00:48;99850.72;;;6.90;100.00
71361;BME280;59166;48.908;1.870;2022-11-20T10:05:53;99853.69;;;7.10;100.00
71361;BME280;59166;48.908;1.870;2022-11-20T10:11:01;99845.59;;;7.26;100.00
71361;BME280;59166;48.908;1.870;2022-11-20T10:16:18;99856.38;;;7.53;100.00
71361;BME280;59166;48.908;1.870;2022-11-20T10:21:29;99862.44;;;7.65;100.00
71361;BME280;59166;48.908;1.870;2022-11-20T10:26:42;99861.00;;;7.79;100.00
71361;BME280;59166;48.908;1.870;2022-11-20T10:31:47;99855.13;;;7.83;100.00
71361;BME280;59166;48.908;1.870;2022-11-20T10:36:54;99844.97;;;7.90;100.00
71361;BME280;59166;48.908;1.870;2022-11-20T10:42:17;99844.91;;;7.85;100.00
71361;BME280;59166;48.908;1.870;2022-11-20T10:47:21;99842.22;;;7.85;100.00
71361;BME280;59166;48.908;1.870;2022-11-20T10:52:29;99836.63;;;7.91;100.00
71361;BME280;59166;48.908;1.870;2022-11-20T10:57:49;99838.56;;;7.96;100.00
71361;BME280;59166;48.908;1.870;2022-11-20T11:02:54;99849.56;;;7.94;100.00
71361;BME280;59166;48.908;1.870;2022-11-20T11:07:56;99845.00;;;7.95;100.00
71361;BME280;59166;48.908;1.870;2022-11-20T11:12:57;99842.06;;;7.96;100.00
71361;BME280;59166;48.908;1.870;2022-11-20T11:18:00;99842.13;;;8.01;100.00
71361;BME280;59166;48.908;1.870;2022-11-20T11:23:00;99839.94;;;7.98;100.00
71361;BME280;59166;48.908;1.870;2022-11-20T11:28:03;99827.03;;;8.00;100.00
71361;BME280;59166;48.908;1.870;2022-11-20T11:33:26;99818.72;;;8.02;100.00
71361;BME280;59166;48.908;1.870;2022-11-20T11:38:31;99817.59;;;7.98;100.00
71361;BME280;59166;48.908;1.870;2022-11-20T11:43:36;99798.91;;;8.13;100.00
71361;BME280;59166;48.908;1.870;2022-11-20T11:48:39;99792.22;;;8.20;100.00
71361;BME280;59166;48.908;1.870;2022-11-20T11:53:41;99796.13;;;8.35;100.00
71361;BME280;59166;48.908;1.870;2022-11-20T11:58:45;99779.22;;;8.44;100.00
71361;BME280;59166;48.908;1.870;2022-11-20T12:03:55;99780.09;;;8.55;100.00
71361;BME280;59166;48.908;1.870;2022-11-20T12:09:03;99776.34;;;8.51;100.00
71361;BME280;59166;48.908;1.870;2022-11-20T12:14:11;99775.19;;;8.42;100.00
71361;BME280;59166;48.908;1.870;2022-11-20T12:19:16;99784.75;;;8.27;100.00
71361;BME280;59166;48.908;1.870;2022-11-20T12:24:32;99786.16;;;8.30;100.00
71361;BME280;59166;48.908;1.870;2022-11-20T12:29:43;99793.91;;;8.26;100.00
71361;BME280;59166;48.908;1.870;2022-11-20T12:35:18;99800.59;;;8.24;100.00
71361;BME280;59166;48.908;1.870;2022-11-20T12:40:32;99807.44;;;8.37;100.00
71361;BME280;59166;48.908;1.870;2022-11-20T12:45:51;99791.97;;;8.54;100.00
71361;BME280;59166;48.908;1.870;2022-11-20T12:51:14;99768.34;;;8.66;100.00
71361;BME280;59166;48.908;1.870;2022-11-20T12:56:39;99778.94;;;8.82;100.00
71361;BME280;59166;48.908;1.870;2022-11-20T13:02:09;99774.78;;;9.12;100.00
71361;BME280;59166;48.908;1.870;2022-11-20T13:07:17;99792.69;;;9.38;100.00
71361;BME280;59166;48.908;1.870;2022-11-20T13:12:24;99789.69;;;9.40;100.00
71361;BME280;59166;48.908;1.870;2022-11-20T13:17:33;99799.72;;;9.54;100.00
71361;BME280;59166;48.908;1.870;2022-11-20T13:22:45;99791.38;;;9.66;100.00
71361;BME280;59166;48.908;1.870;2022-11-20T13:27:47;99794.09;;;9.76;100.00
71361;BME280;59166;48.908;1.870;2022-11-20T13:32:51;99795.75;;;9.87;100.00
71361;BME280;59166;48.908;1.870;2022-11-20T13:38:02;99800.63;;;10.05;100.00
71361;BME280;59166;48.908;1.870;2022-11-20T13:43:20;99797.66;;;10.27;100.00
71361;BME280;59166;48.908;1.870;2022-11-20T13:48:24;99800.88;;;10.34;100.00
71361;BME280;59166;48.908;1.870;2022-11-20T13:53:46;99797.63;;;10.37;100.00
71361;BME280;59166;48.908;1.870;2022-11-20T13:58:56;99791.69;;;10.30;100.00
71361;BME280;59166;48.908;1.870;2022-11-20T14:03:59;99785.50;;;10.29;100.00
71361;BME280;59166;48.908;1.870;2022-11-20T14:09:03;99781.16;;;10.33;100.00
71361;BME280;59166;48.908;1.870;2022-11-20T14:14:10;99759.31;;;10.30;100.00
71361;BME280;59166;48.908;1.870;2022-11-20T14:19:28;99773.06;;;10.49;100.00
71361;BME280;59166;48.908;1.870;2022-11-20T14:24:31;99782.50;;;10.56;100.00
71361;BME280;59166;48.908;1.870;2022-11-20T14:29:35;99783.56;;;10.65;100.00
71361;BME280;59166;48.908;1.870;2022-11-20T14:34:39;99781.41;;;10.62;100.00
71361;BME280;59166;48.908;1.870;2022-11-20T14:39:48;99791.94;;;10.59;100.00
71361;BME280;59166;48.908;1.870;2022-11-20T14:44:50;99797.91;;;10.51;100.00
71361;BME280;59166;48.908;1.870;2022-11-20T14:49:52;99816.81;;;10.30;100.00
71361;BME280;59166;48.908;1.870;2022-11-20T14:54:57;99824.34;;;10.13;100.00
71361;BME280;59166;48.908;1.870;2022-11-20T15:00:06;99840.00;;;9.96;100.00
71361;BME280;59166;48.908;1.870;2022-11-20T15:05:08;99852.13;;;9.83;100.00
71361;BME280;59166;48.908;1.870;2022-11-20T15:10:12;99843.97;;;9.63;100.00
71361;BME280;59166;48.908;1.870;2022-11-20T15:15:18;99855.47;;;9.33;100.00
71361;BME280;59166;48.908;1.870;2022-11-20T15:20:24;99864.78;;;9.11;100.00
71361;BME280;59166;48.908;1.870;2022-11-20T15:25:28;99836.09;;;8.90;100.00
71361;BME280;59166;48.908;1.870;2022-11-20T15:30:29;99837.06;;;8.73;100.00
71361;BME280;59166;48.908;1.870;2022-11-20T15:35:29;99849.09;;;8.61;100.00
71361;BME280;59166;48.908;1.870;2022-11-20T15:40:32;99854.94;;;8.53;100.00
71361;BME280;59166;48.908;1.870;2022-11-20T15:45:38;99841.19;;;8.49;100.00
71361;BME280;59166;48.908;1.870;2022-11-20T15:50:47;99852.47;;;8.46;100.00
71361;BME280;59166;48.908;1.870;2022-11-20T15:55:51;99856.50;;;8.44;100.00
71361;BME280;59166;48.908;1.870;2022-11-20T16:00:52;99858.00;;;8.35;100.00
71361;BME280;59166;48.908;1.870;2022-11-20T16:05:53;99863.88;;;8.26;100.00
71361;BME280;59166;48.908;1.870;2022-11-20T16:10:56;99862.00;;;8.27;100.00
71361;BME280;59166;48.908;1.870;2022-11-20T16:15:58;99870.25;;;8.20;100.00
71361;BME280;59166;48.908;1.870;2022-11-20T16:20:59;99874.56;;;8.16;100.00
71361;BME280;59166;48.908;1.870;2022-11-20T16:26:09;99883.34;;;8.07;100.00
71361;BME280;59166;48.908;1.870;2022-11-20T16:31:11;99883.28;;;8.02;100.00
71361;BME280;59166;48.908;1.870;2022-11-20T16:36:14;99879.22;;;7.99;100.00
71361;BME280;59166;48.908;1.870;2022-11-20T16:41:16;99870.28;;;7.94;100.00
71361;BME280;59166;48.908;1.870;2022-11-20T16:46:19;99868.88;;;7.86;100.00
71361;BME280;59166;48.908;1.870;2022-11-20T16:51:20;99866.94;;;7.82;100.00
71361;BME280;59166;48.908;1.870;2022-11-20T16:56:24;99859.81;;;7.70;100.00
71361;BME280;59166;48.908;1.870;2022-11-20T17:01:26;99851.22;;;7.73;100.00
71361;BME280;59166;48.908;1.870;2022-11-20T17:06:28;99850.78;;;7.82;100.00
71361;BME280;59166;48.908;1.870;2022-11-20T17:11:31;99852.94;;;7.79;100.00
71361;BME280;59166;48.908;1.870;2022-11-20T17:16:33;99849.56;;;7.67;100.00
71361;BME280;59166;48.908;1.870;2022-11-20T17:21:35;99862.16;;;7.62;100.00
71361;BME280;59166;48.908;1.870;2022-11-20T17:26:39;99870.53;;;7.65;100.00
71361;BME280;59166;48.908;1.870;2022-11-20T17:31:41;99865.44;;;7.69;100.00
71361;BME280;59166;48.908;1.870;2022-11-20T17:36:43;99874.34;;;7.69;100.00
71361;BME280;59166;48.908;1.870;2022-11-20T17:41:45;99883.38;;;7.63;100.00
71361;BME280;59166;48.908;1.870;2022-11-20T17:46:46;99883.06;;;7.60;100.00
71361;BME280;59166;48.908;1.870;2022-11-20T17:51:47;99901.88;;;7.60;100.00
71361;BME280;59166;48.908;1.870;2022-11-20T17:56:49;99900.28;;;7.59;100.00
71361;BME280;59166;48.908;1.870;2022-11-20T18:01:50;99909.41;;;7.58;100.00
71361;BME280;59166;48.908;1.870;2022-11-20T18:06:51;99897.50;;;7.54;100.00
71361;BME280;59166;48.908;1.870;2022-11-20T18:11:54;99905.03;;;7.52;100.00
71361;BME280;59166;48.908;1.870;2022-11-20T18:16:57;99911.97;;;7.48;100.00
71361;BME280;59166;48.908;1.870;2022-11-20T18:21:58;99912.50;;;7.50;100.00
71361;BME280;59166;48.908;1.870;2022-11-20T18:27:02;99924.97;;;7.56;100.00
71361;BME280;59166;48.908;1.870;2022-11-20T18:32:03;99919.09;;;7.59;100.00
71361;BME280;59166;48.908;1.870;2022-11-20T18:37:03;99919.16;;;7.64;100.00
71361;BME280;59166;48.908;1.870;2022-11-20T18:42:06;99925.09;;;7.66;100.00
71361;BME280;59166;48.908;1.870;2022-11-20T18:47:09;99917.91;;;7.71;100.00
71361;BME280;59166;48.908;1.870;2022-11-20T18:52:10;99906.13;;;7.77;100.00
71361;BME280;59166;48.908;1.870;2022-11-20T18:57:14;99903.72;;;7.76;100.00
71361;BME280;59166;48.908;1.870;2022-11-20T19:02:16;99914.50;;;7.81;100.00
71361;BME280;59166;48.908;1.870;2022-11-20T19:07:18;99923.72;;;7.85;100.00
71361;BME280;59166;48.908;1.870;2022-11-20T19:12:21;99918.31;;;7.85;100.00
71361;BME280;59166;48.908;1.870;2022-11-20T19:17:21;99916.44;;;7.86;100.00
71361;BME280;59166;48.908;1.870;2022-11-20T19:22:22;99920.38;;;7.78;100.00
71361;BME280;59166;48.908;1.870;2022-11-20T19:27:25;99922.53;;;7.76;100.00
71361;BME280;59166;48.908;1.870;2022-11-20T19:32:26;99932.72;;;7.74;100.00
71361;BME280;59166;48.908;1.870;2022-11-20T19:37:27;99942.91;;;7.72;100.00
71361;BME280;59166;48.908;1.870;2022-11-20T19:42:29;99931.84;;;7.68;100.00
71361;BME280;59166;48.908;1.870;2022-11-20T19:47:30;99926.38;;;7.63;100.00
71361;BME280;59166;48.908;1.870;2022-11-20T19:52:35;99937.41;;;7.62;100.00
71361;BME280;59166;48.908;1.870;2022-11-20T19:57:38;99932.28;;;7.60;100.00
71361;BME280;59166;48.908;1.870;2022-11-20T20:02:39;99925.53;;;7.58;100.00
71361;BME280;59166;48.908;1.870;2022-11-20T20:07:41;99927.78;;;7.66;100.00
71361;BME280;59166;48.908;1.870;2022-11-20T20:12:49;99926.66;;;7.62;100.00
71361;BME280;59166;48.908;1.870;2022-11-20T20:17:54;99937.41;;;7.62;100.00
71361;BME280;59166;48.908;1.870;2022-11-20T20:22:55;99940.41;;;7.65;100.00
71361;BME280;59166;48.908;1.870;2022-11-20T20:28:01;99943.84;;;7.61;100.00
71361;BME280;59166;48.908;1.870;2022-11-20T20:38:28;99939.88;;;7.47;100.00
71361;BME280;59166;48.908;1.870;2022-11-20T20:43:35;99952.91;;;7.55;100.00
71361;BME280;59166;48.908;1.870;2022-11-20T20:48:36;99949.72;;;7.58;100.00
71361;BME280;59166;48.908;1.870;2022-11-20T20:53:37;99949.94;;;7.56;100.00
71361;BME280;59166;48.908;1.870;2022-11-20T20:58:39;99952.81;;;7.50;100.00
71361;BME280;59166;48.908;1.870;2022-11-20T21:03:41;99958.28;;;7.55;100.00
71361;BME280;59166;48.908;1.870;2022-11-20T21:08:42;99968.72;;;7.51;100.00
71361;BME280;59166;48.908;1.870;2022-11-20T21:13:45;99967.84;;;7.46;100.00
71361;BME280;59166;48.908;1.870;2022-11-20T21:18:46;99965.16;;;7.46;100.00
71361;BME280;59166;48.908;1.870;2022-11-20T21:23:47;99972.94;;;7.47;100.00
71361;BME280;59166;48.908;1.870;2022-11-20T21:28:49;99979.66;;;7.45;100.00
71361;BME280;59166;48.908;1.870;2022-11-20T21:33:52;99969.88;;;7.39;100.00
71361;BME280;59166;48.908;1.870;2022-11-20T21:38:53;99976.22;;;7.33;100.00
71361;BME280;59166;48.908;1.870;2022-11-20T21:43:57;99977.66;;;7.18;100.00
71361;BME280;59166;48.908;1.870;2022-11-20T21:48:58;99987.50;;;7.13;100.00
71361;BME280;59166;48.908;1.870;2022-11-20T21:53:59;99981.06;;;7.14;100.00
71361;BME280;59166;48.908;1.870;2022-11-20T21:59:01;99991.09;;;7.18;100.00
71361;BME280;59166;48.908;1.870;2022-11-20T22:04:02;99990.59;;;7.21;100.00
71361;BME280;59166;48.908;1.870;2022-11-20T22:09:03;99993.03;;;7.06;100.00
71361;BME280;59166;48.908;1.870;2022-11-20T22:14:05;99982.78;;;7.03;100.00
71361;BME280;59166;48.908;1.870;2022-11-20T22:19:06;99983.28;;;7.00;100.00
71361;BME280;59166;48.908;1.870;2022-11-20T22:24:07;99977.03;;;6.95;100.00
71361;BME280;59166;48.908;1.870;2022-11-20T22:29:13;99984.50;;;6.93;100.00
71361;BME280;59166;48.908;1.870;2022-11-20T22:34:15;99986.69;;;6.96;100.00
71361;BME280;59166;48.908;1.870;2022-11-20T22:39:16;99978.72;;;7.01;100.00
71361;BME280;59166;48.908;1.870;2022-11-20T22:44:18;99975.22;;;7.00;100.00
71361;BME280;59166;48.908;1.870;2022-11-20T22:49:19;99980.81;;;6.99;100.00
71361;BME280;59166;48.908;1.870;2022-11-20T22:54:20;99967.66;;;6.97;100.00
71361;BME280;59166;48.908;1.870;2022-11-20T22:59:22;99959.09;;;7.00;100.00
71361;BME280;59166;48.908;1.870;2022-11-20T23:04:23;99951.59;;;7.02;100.00
71361;BME280;59166;48.908;1.870;2022-11-20T23:09:24;99948.13;;;7.02;100.00
71361;BME280;59166;48.908;1.870;2022-11-20T23:14:26;99948.53;;;6.94;100.00
71361;BME280;59166;48.908;1.870;2022-11-20T23:19:27;99942.28;;;6.88;100.00
71361;BME280;59166;48.908;1.870;2022-11-20T23:24:28;99932.03;;;6.85;100.00
71361;BME280;59166;48.908;1.870;2022-11-20T23:29:30;99937.41;;;6.85;100.00
71361;BME280;59166;48.908;1.870;2022-11-20T23:34:31;99936.44;;;6.74;100.00
71361;BME280;59166;48.908;1.870;2022-11-20T23:39:32;99932.81;;;6.69;100.00
71361;BME280;59166;48.908;1.870;2022-11-20T23:44:34;99931.94;;;6.63;100.00
71361;BME280;59166;48.908;1.870;2022-11-20T23:49:35;99930.41;;;6.67;100.00
71361;BME280;59166;48.908;1.870;2022-11-20T23:54:36;99937.09;;;6.65;100.00
71361;BME280;59166;48.908;1.870;2022-11-20T23:59:38;99935.59;;;6.57;100.00
